sensor_id;sensor_type;location;lat;lon;timestamp;temperature;humidity
2010;DHT22;1008;47.404;8.502;2023-02-01T00:00:30;4.50;99.90
2010;DHT22;1008;47.404;8.502;2023-02-01T00:02:58;4.60;99.90
2010;DHT22;1008;47.404;8.502;2023-02-01T00:05:25;4.60;99.90
2010;DHT22;1008;47.404;8.502;2023-02-01T00:07:52;4.60;99.90
2010;DHT22;1008;47.404;8.502;2023-02-01T00:10:19;4.80;99.90
2010;DHT22;1008;47.404;8.502;2023-02-01T00:12:45;4.80;99.90
2010;DHT22;1008;47.404;8.502;2023-02-01T00:15:14;4.80;99.90
2010;DHT22;1008;47.404;8.502;2023-02-01T00:17:41;4.60;99.90
2010;DHT22;1008;47.404;8.502;2023-02-01T00:20:09;4.70;99.90
2010;DHT22;1008;47.404;8.502;2023-02-01T00:22:36;4.50;99.90
2010;DHT22;1008;47.404;8.502;2023-02-01T00:25:03;4.40;99.90
2010;DHT22;1008;47.404;8.502;2023-02-01T00:27:30;4.40;99.90
2010;DHT22;1008;47.404;8.502;2023-02-01T00:29:56;4.30;99.90
2010;DHT22;1008;47.404;8.502;2023-02-01T00:32:24;4.20;99.90
2010;DHT22;1008;47.404;8.502;2023-02-01T00:34:51;4.20;99.90
2010;DHT22;1008;47.404;8.502;2023-02-01T00:37:18;4.40;99.90
2010;DHT22;1008;47.404;8.502;2023-02-01T00:39:45;4.30;99.90
2010;DHT22;1008;47.404;8.502;2023-02-01T00:42:11;4.40;99.90
2010;DHT22;1008;47.404;8.502;2023-02-01T00:44:38;4.30;99.90
2010;DHT22;1008;47.404;8.502;2023-02-01T00:47:05;4.20;99.90
2010;DHT22;1008;47.404;8.502;2023-02-01T00:49:33;4.10;99.90
2010;DHT22;1008;47.404;8.502;2023-02-01T00:52:00;4.20;99.90
2010;DHT22;1008;47.404;8.502;2023-02-01T00:54:27;4.10;99.90
2010;DHT22;1008;47.404;8.502;2023-02-01T00:56:53;4.10;99.90
2010;DHT22;1008;47.404;8.502;2023-02-01T00:59:20;3.90;99.90
2010;DHT22;1008;47.404;8.502;2023-02-01T01:01:47;4.00;99.90
2010;DHT22;1008;47.404;8.502;2023-02-01T01:04:13;4.00;99.90
2010;DHT22;1008;47.404;8.502;2023-02-01T01:06:42;4.00;99.90
2010;DHT22;1008;47.404;8.502;2023-02-01T01:09:09;3.90;99.90
2010;DHT22;1008;47.404;8.502;2023-02-01T01:11:37;3.80;99.90
2010;DHT22;1008;47.404;8.502;2023-02-01T01:14:06;3.90;99.90
2010;DHT22;1008;47.404;8.502;2023-02-01T01:16:33;3.90;99.90
2010;DHT22;1008;47.404;8.502;2023-02-01T01:19:01;3.80;99.90
2010;DHT22;1008;47.404;8.502;2023-02-01T01:21:28;3.80;99.90
2010;DHT22;1008;47.404;8.502;2023-02-01T01:23:56;3.80;99.90
2010;DHT22;1008;47.404;8.502;2023-02-01T01:26:25;3.70;99.90
2010;DHT22;1008;47.404;8.502;2023-02-01T01:28:54;3.80;99.90
2010;DHT22;1008;47.404;8.502;2023-02-01T01:31:21;3.80;99.90
2010;DHT22;1008;47.404;8.502;2023-02-01T01:33:48;3.80;99.90
2010;DHT22;1008;47.404;8.502;2023-02-01T01:36:16;3.80;99.90
2010;DHT22;1008;47.404;8.502;2023-02-01T01:38:43;4.10;99.90
2010;DHT22;1008;47.404;8.502;2023-02-01T01:41:14;3.80;99.90
2010;DHT22;1008;47.404;8.502;2023-02-01T01:43:54;3.90;99.90
2010;DHT22;1008;47.404;8.502;2023-02-01T01:46:22;3.80;99.90
2010;DHT22;1008;47.404;8.502;2023-02-01T01:48:52;3.90;99.90
2010;DHT22;1008;47.404;8.502;2023-02-01T01:51:21;3.80;99.90
2010;DHT22;1008;47.404;8.502;2023-02-01T01:53:56;3.60;99.90
2010;DHT22;1008;47.404;8.502;2023-02-01T01:56:26;3.80;99.90
2010;DHT22;1008;47.404;8.502;2023-02-01T01:58:55;3.70;99.90
2010;DHT22;1008;47.404;8.502;2023-02-01T02:01:22;3.80;99.90
2010;DHT22;1008;47.404;8.502;2023-02-01T02:03:51;3.90;99.90
2010;DHT22;1008;47.404;8.502;2023-02-01T02:06:27;4.00;99.90
2010;DHT22;1008;47.404;8.502;2023-02-01T02:08:59;4.00;99.90
2010;DHT22;1008;47.404;8.502;2023-02-01T02:11:28;3.90;99.90
2010;DHT22;1008;47.404;8.502;2023-02-01T02:13:56;3.90;99.90
2010;DHT22;1008;47.404;8.502;2023-02-01T02:16:45;3.90;99.90
2010;DHT22;1008;47.404;8.502;2023-02-01T02:22:47;3.80;99.90
2010;DHT22;1008;47.404;8.502;2023-02-01T02:25:38;3.80;99.90
2010;DHT22;1008;47.404;8.502;2023-02-01T02:28:22;3.90;99.90
2010;DHT22;1008;47.404;8.502;2023-02-01T02:31:13;3.80;99.90
2010;DHT22;1008;47.404;8.502;2023-02-01T02:33:57;3.70;99.90
2010;DHT22;1008;47.404;8.502;2023-02-01T02:36:32;3.60;99.90
2010;DHT22;1008;47.404;8.502;2023-02-01T02:39:06;3.60;99.90
2010;DHT22;1008;47.404;8.502;2023-02-01T02:41:40;3.70;99.90
2010;DHT22;1008;47.404;8.502;2023-02-01T02:44:33;3.80;99.90
2010;DHT22;1008;47.404;8.502;2023-02-01T02:47:24;3.70;99.90
2010;DHT22;1008;47.404;8.502;2023-02-01T02:50:02;3.50;99.90
2010;DHT22;1008;47.404;8.502;2023-02-01T02:52:57;3.50;99.90
2010;DHT22;1008;47.404;8.502;2023-02-01T02:55:43;3.70;99.90
2010;DHT22;1008;47.404;8.502;2023-02-01T02:58:11;3.50;99.90
2010;DHT22;1008;47.404;8.502;2023-02-01T03:00:57;3.50;99.90
2010;DHT22;1008;47.404;8.502;2023-02-01T03:03:42;3.60;99.90
2010;DHT22;1008;47.404;8.502;2023-02-01T03:06:36;3.80;99.90
2010;DHT22;1008;47.404;8.502;2023-02-01T03:09:10;3.70;99.90
2010;DHT22;1008;47.404;8.502;2023-02-01T03:11:40;3.80;99.90
2010;DHT22;1008;47.404;8.502;2023-02-01T03:14:28;3.70;99.90
2010;DHT22;1008;47.404;8.502;2023-02-01T03:17:00;3.70;99.90
2010;DHT22;1008;47.404;8.502;2023-02-01T03:19:32;3.70;99.90
2010;DHT22;1008;47.404;8.502;2023-02-01T03:22:04;3.60;99.90
2010;DHT22;1008;47.404;8.502;2023-02-01T03:24:34;3.60;99.90
2010;DHT22;1008;47.404;8.502;2023-02-01T03:27:07;3.70;99.90
2010;DHT22;1008;47.404;8.502;2023-02-01T03:29:39;3.70;99.90
2010;DHT22;1008;47.404;8.502;2023-02-01T03:32:08;3.60;99.90
2010;DHT22;1008;47.404;8.502;2023-02-01T03:34:36;3.50;99.90
2010;DHT22;1008;47.404;8.502;2023-02-01T03:37:06;3.70;99.90
2010;DHT22;1008;47.404;8.502;2023-02-01T03:39:37;3.70;99.90
2010;DHT22;1008;47.404;8.502;2023-02-01T03:42:10;3.70;99.90
2010;DHT22;1008;47.404;8.502;2023-02-01T03:44:43;3.70;99.90
2010;DHT22;1008;47.404;8.502;2023-02-01T03:47:15;3.80;99.90
2010;DHT22;1008;47.404;8.502;2023-02-01T03:49:47;3.60;99.90
2010;DHT22;1008;47.404;8.502;2023-02-01T03:52:20;3.70;99.90
2010;DHT22;1008;47.404;8.502;2023-02-01T03:54:48;3.70;99.90
2010;DHT22;1008;47.404;8.502;2023-02-01T03:57:20;3.70;99.90
2010;DHT22;1008;47.404;8.502;2023-02-01T03:59:48;3.60;99.90
2010;DHT22;1008;47.404;8.502;2023-02-01T04:02:16;3.50;99.90
2010;DHT22;1008;47.404;8.502;2023-02-01T04:04:43;3.50;99.90
2010;DHT22;1008;47.404;8.502;2023-02-01T04:07:09;3.60;99.90
2010;DHT22;1008;47.404;8.502;2023-02-01T04:09:37;3.50;99.90
2010;DHT22;1008;47.404;8.502;2023-02-01T04:12:04;3.70;99.90
2010;DHT22;1008;47.404;8.502;2023-02-01T04:14:31;3.60;99.90
2010;DHT22;1008;47.404;8.502;2023-02-01T04:16:58;3.70;99.90
2010;DHT22;1008;47.404;8.502;2023-02-01T04:19:24;3.90;99.90
2010;DHT22;1008;47.404;8.502;2023-02-01T04:21:51;3.80;99.90
2010;DHT22;1008;47.404;8.502;2023-02-01T04:24:18;3.90;99.90
2010;DHT22;1008;47.404;8.502;2023-02-01T04:26:46;3.80;99.90
2010;DHT22;1008;47.404;8.502;2023-02-01T04:29:13;3.70;99.90
2010;DHT22;1008;47.404;8.502;2023-02-01T04:31:40;3.90;99.90
2010;DHT22;1008;47.404;8.502;2023-02-01T04:34:06;3.70;99.90
2010;DHT22;1008;47.404;8.502;2023-02-01T04:36:33;3.70;99.90
2010;DHT22;1008;47.404;8.502;2023-02-01T04:39:00;3.70;99.90
2010;DHT22;1008;47.404;8.502;2023-02-01T04:41:26;3.70;99.90
2010;DHT22;1008;47.404;8.502;2023-02-01T04:43:55;3.70;99.90
2010;DHT22;1008;47.404;8.502;2023-02-01T04:46:22;3.40;99.90
2010;DHT22;1008;47.404;8.502;2023-02-01T04:48:49;3.50;99.90
2010;DHT22;1008;47.404;8.502;2023-02-01T04:51:16;3.80;99.90
2010;DHT22;1008;47.404;8.502;2023-02-01T04:53:43;3.50;99.90
2010;DHT22;1008;47.404;8.502;2023-02-01T04:56:10;3.60;99.90
2010;DHT22;1008;47.404;8.502;2023-02-01T04:58:37;3.50;99.90
2010;DHT22;1008;47.404;8.502;2023-02-01T05:01:06;3.50;99.90
2010;DHT22;1008;47.404;8.502;2023-02-01T05:03:34;3.40;99.90
2010;DHT22;1008;47.404;8.502;2023-02-01T05:06:01;3.30;99.90
2010;DHT22;1008;47.404;8.502;2023-02-01T05:08:29;3.30;99.90
2010;DHT22;1008;47.404;8.502;2023-02-01T05:10:56;3.40;99.90
2010;DHT22;1008;47.404;8.502;2023-02-01T05:13:24;3.40;99.90
2010;DHT22;1008;47.404;8.502;2023-02-01T05:16:09;3.30;99.90
2010;DHT22;1008;47.404;8.502;2023-02-01T05:18:36;3.30;99.90
2010;DHT22;1008;47.404;8.502;2023-02-01T05:21:03;3.30;99.90
2010;DHT22;1008;47.404;8.502;2023-02-01T05:23:30;3.40;99.90
2010;DHT22;1008;47.404;8.502;2023-02-01T05:25:58;3.50;99.90
2010;DHT22;1008;47.404;8.502;2023-02-01T05:28:26;3.60;99.90
2010;DHT22;1008;47.404;8.502;2023-02-01T05:30:53;3.60;99.90
2010;DHT22;1008;47.404;8.502;2023-02-01T05:33:22;3.40;99.90
2010;DHT22;1008;47.404;8.502;2023-02-01T05:35:48;3.50;99.90
2010;DHT22;1008;47.404;8.502;2023-02-01T05:38:15;3.60;99.90
2010;DHT22;1008;47.404;8.502;2023-02-01T05:40:42;3.50;99.90
2010;DHT22;1008;47.404;8.502;2023-02-01T05:43:14;3.50;99.90
2010;DHT22;1008;47.404;8.502;2023-02-01T05:45:41;3.60;99.90
2010;DHT22;1008;47.404;8.502;2023-02-01T05:48:08;3.60;99.90
2010;DHT22;1008;47.404;8.502;2023-02-01T05:50:36;3.60;99.90
2010;DHT22;1008;47.404;8.502;2023-02-01T05:53:03;3.60;99.90
2010;DHT22;1008;47.404;8.502;2023-02-01T05:55:30;3.50;99.90
2010;DHT22;1008;47.404;8.502;2023-02-01T05:57:56;3.70;99.90
2010;DHT22;1008;47.404;8.502;2023-02-01T06:00:23;3.70;99.90
2010;DHT22;1008;47.404;8.502;2023-02-01T06:02:50;3.50;99.90
2010;DHT22;1008;47.404;8.502;2023-02-01T06:05:17;3.60;99.90
2010;DHT22;1008;47.404;8.502;2023-02-01T06:07:45;3.70;99.90
2010;DHT22;1008;47.404;8.502;2023-02-01T06:10:13;3.50;99.90
2010;DHT22;1008;47.404;8.502;2023-02-01T06:12:39;3.60;99.90
2010;DHT22;1008;47.404;8.502;2023-02-01T06:15:07;3.60;99.90
2010;DHT22;1008;47.404;8.502;2023-02-01T06:17:34;3.60;99.90
2010;DHT22;1008;47.404;8.502;2023-02-01T06:20:04;3.60;99.90
2010;DHT22;1008;47.404;8.502;2023-02-01T06:22:32;3.60;99.90
2010;DHT22;1008;47.404;8.502;2023-02-01T06:25:00;3.60;99.90
2010;DHT22;1008;47.404;8.502;2023-02-01T06:27:27;3.60;99.90
2010;DHT22;1008;47.404;8.502;2023-02-01T06:29:54;3.80;99.90
2010;DHT22;1008;47.404;8.502;2023-02-01T06:32:20;4.60;99.90
2010;DHT22;1008;47.404;8.502;2023-02-01T06:34:48;4.40;99.90
2010;DHT22;1008;47.404;8.502;2023-02-01T06:37:15;4.10;99.90
2010;DHT22;1008;47.404;8.502;2023-02-01T06:39:42;3.90;99.90
2010;DHT22;1008;47.404;8.502;2023-02-01T06:42:10;3.70;99.90
2010;DHT22;1008;47.404;8.502;2023-02-01T06:44:37;3.70;99.90
2010;DHT22;1008;47.404;8.502;2023-02-01T06:47:04;3.70;99.90
2010;DHT22;1008;47.404;8.502;2023-02-01T06:49:31;3.70;99.90
2010;DHT22;1008;47.404;8.502;2023-02-01T06:51:57;3.70;99.90
2010;DHT22;1008;47.404;8.502;2023-02-01T06:54:25;3.80;99.90
2010;DHT22;1008;47.404;8.502;2023-02-01T06:56:52;3.90;99.90
2010;DHT22;1008;47.404;8.502;2023-02-01T06:59:20;4.00;99.90
2010;DHT22;1008;47.404;8.502;2023-02-01T07:01:47;3.90;99.90
2010;DHT22;1008;47.404;8.502;2023-02-01T07:04:14;3.90;99.90
2010;DHT22;1008;47.404;8.502;2023-02-01T07:06:43;4.20;99.90
2010;DHT22;1008;47.404;8.502;2023-02-01T07:09:09;4.00;99.90
2010;DHT22;1008;47.404;8.502;2023-02-01T07:11:37;4.00;99.90
2010;DHT22;1008;47.404;8.502;2023-02-01T07:14:08;4.00;99.90
2010;DHT22;1008;47.404;8.502;2023-02-01T07:16:36;4.00;99.90
2010;DHT22;1008;47.404;8.502;2023-02-01T07:19:03;4.00;99.90
2010;DHT22;1008;47.404;8.502;2023-02-01T07:21:30;4.00;99.90
2010;DHT22;1008;47.404;8.502;2023-02-01T07:23:58;4.00;99.90
2010;DHT22;1008;47.404;8.502;2023-02-01T07:26:24;3.90;99.90
2010;DHT22;1008;47.404;8.502;2023-02-01T07:28:51;3.80;99.90
2010;DHT22;1008;47.404;8.502;2023-02-01T07:31:19;3.80;99.90
2010;DHT22;1008;47.404;8.502;2023-02-01T07:33:48;3.90;99.90
2010;DHT22;1008;47.404;8.502;2023-02-01T07:36:17;3.90;99.90
2010;DHT22;1008;47.404;8.502;2023-02-01T07:38:44;3.70;99.90
2010;DHT22;1008;47.404;8.502;2023-02-01T07:41:12;3.70;99.90
2010;DHT22;1008;47.404;8.502;2023-02-01T07:43:39;3.80;99.90
2010;DHT22;1008;47.404;8.502;2023-02-01T07:46:06;3.70;99.90
2010;DHT22;1008;47.404;8.502;2023-02-01T07:48:33;3.80;99.90
2010;DHT22;1008;47.404;8.502;2023-02-01T07:51:03;3.80;99.90
2010;DHT22;1008;47.404;8.502;2023-02-01T07:53:31;3.60;99.90
2010;DHT22;1008;47.404;8.502;2023-02-01T07:55:58;3.60;99.90
2010;DHT22;1008;47.404;8.502;2023-02-01T07:58:26;3.60;99.90
2010;DHT22;1008;47.404;8.502;2023-02-01T08:00:53;3.70;99.90
2010;DHT22;1008;47.404;8.502;2023-02-01T08:03:38;3.70;99.90
2010;DHT22;1008;47.404;8.502;2023-02-01T08:06:06;3.60;99.90
2010;DHT22;1008;47.404;8.502;2023-02-01T08:08:33;3.70;99.90
2010;DHT22;1008;47.404;8.502;2023-02-01T08:11:01;3.70;99.90
2010;DHT22;1008;47.404;8.502;2023-02-01T08:13:28;3.50;99.90
2010;DHT22;1008;47.404;8.502;2023-02-01T08:15:57;3.30;99.90
2010;DHT22;1008;47.404;8.502;2023-02-01T08:18:24;3.30;99.90
2010;DHT22;1008;47.404;8.502;2023-02-01T08:20:51;3.30;99.90
2010;DHT22;1008;47.404;8.502;2023-02-01T08:23:19;3.40;99.90
2010;DHT22;1008;47.404;8.502;2023-02-01T08:25:46;3.60;99.90
2010;DHT22;1008;47.404;8.502;2023-02-01T08:28:13;3.50;99.90
2010;DHT22;1008;47.404;8.502;2023-02-01T08:30:40;3.50;99.90
2010;DHT22;1008;47.404;8.502;2023-02-01T08:33:08;3.50;99.90
2010;DHT22;1008;47.404;8.502;2023-02-01T08:35:35;3.40;99.90
2010;DHT22;1008;47.404;8.502;2023-02-01T08:38:03;3.40;99.90
2010;DHT22;1008;47.404;8.502;2023-02-01T08:40:31;3.50;99.90
2010;DHT22;1008;47.404;8.502;2023-02-01T08:42:58;3.40;99.90
2010;DHT22;1008;47.404;8.502;2023-02-01T08:45:27;3.70;99.90
2010;DHT22;1008;47.404;8.502;2023-02-01T08:47:55;3.70;99.90
2010;DHT22;1008;47.404;8.502;2023-02-01T08:50:23;3.70;99.90
2010;DHT22;1008;47.404;8.502;2023-02-01T08:52:50;3.80;99.90
2010;DHT22;1008;47.404;8.502;2023-02-01T08:55:17;3.90;99.90
2010;DHT22;1008;47.404;8.502;2023-02-01T08:57:46;3.90;99.90
2010;DHT22;1008;47.404;8.502;2023-02-01T09:00:15;3.90;99.90
2010;DHT22;1008;47.404;8.502;2023-02-01T09:02:42;3.90;99.90
2010;DHT22;1008;47.404;8.502;2023-02-01T09:05:09;4.00;99.90
2010;DHT22;1008;47.404;8.502;2023-02-01T09:07:36;4.10;99.90
2010;DHT22;1008;47.404;8.502;2023-02-01T09:10:04;4.10;99.90
2010;DHT22;1008;47.404;8.502;2023-02-01T09:12:32;4.10;99.90
2010;DHT22;1008;47.404;8.502;2023-02-01T09:15:00;4.20;99.90
2010;DHT22;1008;47.404;8.502;2023-02-01T09:17:27;4.20;99.90
2010;DHT22;1008;47.404;8.502;2023-02-01T09:19:55;4.20;99.90
2010;DHT22;1008;47.404;8.502;2023-02-01T09:22:22;4.30;99.90
2010;DHT22;1008;47.404;8.502;2023-02-01T09:24:48;4.40;99.90
2010;DHT22;1008;47.404;8.502;2023-02-01T09:27:15;4.20;99.90
2010;DHT22;1008;47.404;8.502;2023-02-01T09:29:42;4.30;99.90
2010;DHT22;1008;47.404;8.502;2023-02-01T09:32:10;4.40;99.90
2010;DHT22;1008;47.404;8.502;2023-02-01T09:34:37;4.50;99.90
2010;DHT22;1008;47.404;8.502;2023-02-01T09:37:03;4.90;99.90
2010;DHT22;1008;47.404;8.502;2023-02-01T09:39:30;4.60;99.90
2010;DHT22;1008;47.404;8.502;2023-02-01T09:42:04;4.70;99.90
2010;DHT22;1008;47.404;8.502;2023-02-01T09:47:35;4.70;99.90
2010;DHT22;1008;47.404;8.502;2023-02-01T09:50:05;4.60;99.90
2010;DHT22;1008;47.404;8.502;2023-02-01T09:52:37;4.60;99.90
2010;DHT22;1008;47.404;8.502;2023-02-01T09:55:11;4.70;99.90
2010;DHT22;1008;47.404;8.502;2023-02-01T09:57:45;4.70;99.90
2010;DHT22;1008;47.404;8.502;2023-02-01T10:00:18;4.60;99.90
2010;DHT22;1008;47.404;8.502;2023-02-01T10:02:48;4.70;99.90
2010;DHT22;1008;47.404;8.502;2023-02-01T10:05:20;4.80;99.90
2010;DHT22;1008;47.404;8.502;2023-02-01T10:07:57;4.70;99.90
2010;DHT22;1008;47.404;8.502;2023-02-01T10:10:30;4.70;99.90
2010;DHT22;1008;47.404;8.502;2023-02-01T10:13:17;4.70;99.90
2010;DHT22;1008;47.404;8.502;2023-02-01T10:15:56;4.60;99.90
2010;DHT22;1008;47.404;8.502;2023-02-01T10:18:45;4.60;99.90
2010;DHT22;1008;47.404;8.502;2023-02-01T10:21:23;4.80;99.90
2010;DHT22;1008;47.404;8.502;2023-02-01T10:24:06;4.80;99.90
2010;DHT22;1008;47.404;8.502;2023-02-01T10:26:39;4.60;99.90
2010;DHT22;1008;47.404;8.502;2023-02-01T10:29:16;4.70;99.90
2010;DHT22;1008;47.404;8.502;2023-02-01T10:31:44;4.90;99.90
2010;DHT22;1008;47.404;8.502;2023-02-01T10:34:17;5.00;99.90
2010;DHT22;1008;47.404;8.502;2023-02-01T10:36:52;5.20;99.90
2010;DHT22;1008;47.404;8.502;2023-02-01T10:39:20;5.20;99.90
2010;DHT22;1008;47.404;8.502;2023-02-01T10:41:47;5.30;99.90
2010;DHT22;1008;47.404;8.502;2023-02-01T10:44:16;5.60;99.90
2010;DHT22;1008;47.404;8.502;2023-02-01T10:46:43;5.60;99.90
2010;DHT22;1008;47.404;8.502;2023-02-01T10:49:16;5.50;99.90
2010;DHT22;1008;47.404;8.502;2023-02-01T10:51:47;5.50;99.90
2010;DHT22;1008;47.404;8.502;2023-02-01T10:54:17;5.50;99.90
2010;DHT22;1008;47.404;8.502;2023-02-01T10:56:46;5.60;99.90
2010;DHT22;1008;47.404;8.502;2023-02-01T10:59:16;5.70;99.90
2010;DHT22;1008;47.404;8.502;2023-02-01T11:01:45;5.80;99.90
2010;DHT22;1008;47.404;8.502;2023-02-01T11:04:15;5.50;99.90
2010;DHT22;1008;47.404;8.502;2023-02-01T11:06:44;5.60;99.90
2010;DHT22;1008;47.404;8.502;2023-02-01T11:09:17;5.60;99.90
2010;DHT22;1008;47.404;8.502;2023-02-01T11:11:57;5.90;99.90
2010;DHT22;1008;47.404;8.502;2023-02-01T11:14:33;6.70;99.90
2010;DHT22;1008;47.404;8.502;2023-02-01T11:17:02;6.90;99.90
2010;DHT22;1008;47.404;8.502;2023-02-01T11:19:44;7.00;99.90
2010;DHT22;1008;47.404;8.502;2023-02-01T11:22:12;7.00;99.90
2010;DHT22;1008;47.404;8.502;2023-02-01T11:24:40;7.20;99.90
2010;DHT22;1008;47.404;8.502;2023-02-01T11:27:15;7.50;99.90
2010;DHT22;1008;47.404;8.502;2023-02-01T11:29:44;7.90;99.90
2010;DHT22;1008;47.404;8.502;2023-02-01T11:32:14;7.50;99.90
2010;DHT22;1008;47.404;8.502;2023-02-01T11:34:47;7.60;99.90
2010;DHT22;1008;47.404;8.502;2023-02-01T11:37:18;7.30;99.90
2010;DHT22;1008;47.404;8.502;2023-02-01T11:39:54;7.60;99.90
2010;DHT22;1008;47.404;8.502;2023-02-01T11:42:21;7.40;99.90
2010;DHT22;1008;47.404;8.502;2023-02-01T11:44:48;7.50;99.90
2010;DHT22;1008;47.404;8.502;2023-02-01T11:47:24;7.50;99.90
2010;DHT22;1008;47.404;8.502;2023-02-01T11:49:54;7.40;99.90
2010;DHT22;1008;47.404;8.502;2023-02-01T11:52:43;7.30;99.90
2010;DHT22;1008;47.404;8.502;2023-02-01T11:55:36;7.70;99.90
2010;DHT22;1008;47.404;8.502;2023-02-01T11:58:24;7.70;99.90
2010;DHT22;1008;47.404;8.502;2023-02-01T12:01:04;7.80;99.90
2010;DHT22;1008;47.404;8.502;2023-02-01T12:03:57;8.10;99.90
2010;DHT22;1008;47.404;8.502;2023-02-01T12:06:38;7.50;99.90
2010;DHT22;1008;47.404;8.502;2023-02-01T12:09:18;7.70;99.90
2010;DHT22;1008;47.404;8.502;2023-02-01T12:11:58;7.80;99.90
2010;DHT22;1008;47.404;8.502;2023-02-01T12:14:59;8.00;99.90
2010;DHT22;1008;47.404;8.502;2023-02-01T12:17:51;8.40;99.90
2010;DHT22;1008;47.404;8.502;2023-02-01T12:20:28;8.20;99.90
2010;DHT22;1008;47.404;8.502;2023-02-01T12:23:10;8.20;99.90
2010;DHT22;1008;47.404;8.502;2023-02-01T12:25:56;8.40;99.90
2010;DHT22;1008;47.404;8.502;2023-02-01T12:28:38;8.50;99.90
2010;DHT22;1008;47.404;8.502;2023-02-01T12:31:30;8.40;99.90
2010;DHT22;1008;47.404;8.502;2023-02-01T12:34:18;8.10;99.90
2010;DHT22;1008;47.404;8.502;2023-02-01T12:36:54;7.90;99.90
2010;DHT22;1008;47.404;8.502;2023-02-01T12:39:31;7.10;99.90
2010;DHT22;1008;47.404;8.502;2023-02-01T12:42:01;6.80;99.90
2010;DHT22;1008;47.404;8.502;2023-02-01T12:44:39;6.80;99.90
2010;DHT22;1008;47.404;8.502;2023-02-01T12:47:15;6.70;99.90
2010;DHT22;1008;47.404;8.502;2023-02-01T12:49:52;6.60;99.90
2010;DHT22;1008;47.404;8.502;2023-02-01T12:52:25;6.70;99.90
2010;DHT22;1008;47.404;8.502;2023-02-01T12:54:57;6.80;99.90
2010;DHT22;1008;47.404;8.502;2023-02-01T12:57:28;7.30;99.90
2010;DHT22;1008;47.404;8.502;2023-02-01T13:00:04;7.60;99.90
2010;DHT22;1008;47.404;8.502;2023-02-01T13:02:39;7.60;99.90
2010;DHT22;1008;47.404;8.502;2023-02-01T13:05:14;7.80;99.90
2010;DHT22;1008;47.404;8.502;2023-02-01T13:07:47;7.70;99.90
2010;DHT22;1008;47.404;8.502;2023-02-01T13:10:20;8.00;99.90
2010;DHT22;1008;47.404;8.502;2023-02-01T13:12:53;8.20;99.90
2010;DHT22;1008;47.404;8.502;2023-02-01T13:15:25;8.40;99.90
2010;DHT22;1008;47.404;8.502;2023-02-01T13:17:55;8.10;99.90
2010;DHT22;1008;47.404;8.502;2023-02-01T13:20:29;8.30;99.90
2010;DHT22;1008;47.404;8.502;2023-02-01T13:23:00;8.00;99.90
2010;DHT22;1008;47.404;8.502;2023-02-01T13:25:35;7.90;99.90
2010;DHT22;1008;47.404;8.502;2023-02-01T13:28:06;8.00;99.90
2010;DHT22;1008;47.404;8.502;2023-02-01T13:30:47;8.30;99.90
2010;DHT22;1008;47.404;8.502;2023-02-01T13:33:34;8.30;99.90
2010;DHT22;1008;47.404;8.502;2023-02-01T13:36:45;8.40;99.90
2010;DHT22;1008;47.404;8.502;2023-02-01T13:42:18;7.70;99.90
2010;DHT22;1008;47.404;8.502;2023-02-01T13:44:48;7.20;99.90
2010;DHT22;1008;47.404;8.502;2023-02-01T13:47:26;6.90;99.90
2010;DHT22;1008;47.404;8.502;2023-02-01T13:49:55;6.70;99.90
2010;DHT22;1008;47.404;8.502;2023-02-01T13:52:29;6.50;99.90
2010;DHT22;1008;47.404;8.502;2023-02-01T13:55:16;6.50;99.90
2010;DHT22;1008;47.404;8.502;2023-02-01T13:57:58;6.40;99.90
2010;DHT22;1008;47.404;8.502;2023-02-01T14:00:28;6.40;99.90
2010;DHT22;1008;47.404;8.502;2023-02-01T14:03:18;6.40;99.90
2010;DHT22;1008;47.404;8.502;2023-02-01T14:06:34;6.40;99.90
2010;DHT22;1008;47.404;8.502;2023-02-01T14:09:17;6.40;99.90
2010;DHT22;1008;47.404;8.502;2023-02-01T14:11:47;6.50;99.90
2010;DHT22;1008;47.404;8.502;2023-02-01T14:14:47;6.50;99.90
2010;DHT22;1008;47.404;8.502;2023-02-01T14:17:36;6.40;99.90
2010;DHT22;1008;47.404;8.502;2023-02-01T14:23:20;6.40;99.90
2010;DHT22;1008;47.404;8.502;2023-02-01T14:26:03;6.40;99.90
2010;DHT22;1008;47.404;8.502;2023-02-01T14:28:31;6.40;99.90
2010;DHT22;1008;47.404;8.502;2023-02-01T14:30:59;6.40;99.90
2010;DHT22;1008;47.404;8.502;2023-02-01T14:33:27;6.50;99.90
2010;DHT22;1008;47.404;8.502;2023-02-01T14:36:05;6.30;99.90
2010;DHT22;1008;47.404;8.502;2023-02-01T14:38:35;6.40;99.90
2010;DHT22;1008;47.404;8.502;2023-02-01T14:41:28;6.30;99.90
2010;DHT22;1008;47.404;8.502;2023-02-01T14:44:24;6.20;99.90
2010;DHT22;1008;47.404;8.502;2023-02-01T14:50:31;6.40;99.90
2010;DHT22;1008;47.404;8.502;2023-02-01T14:55:55;6.30;99.90
2010;DHT22;1008;47.404;8.502;2023-02-01T14:58:32;6.30;99.90
2010;DHT22;1008;47.404;8.502;2023-02-01T15:01:04;6.30;99.90
2010;DHT22;1008;47.404;8.502;2023-02-01T15:03:44;6.30;99.90
2010;DHT22;1008;47.404;8.502;2023-02-01T15:06:22;6.40;99.90
2010;DHT22;1008;47.404;8.502;2023-02-01T15:08:53;6.30;99.90
2010;DHT22;1008;47.404;8.502;2023-02-01T15:11:21;6.30;99.90
2010;DHT22;1008;47.404;8.502;2023-02-01T15:13:49;6.40;99.90
2010;DHT22;1008;47.404;8.502;2023-02-01T15:16:19;6.40;99.90
2010;DHT22;1008;47.404;8.502;2023-02-01T15:18:48;6.40;99.90
2010;DHT22;1008;47.404;8.502;2023-02-01T15:21:18;6.40;99.90
2010;DHT22;1008;47.404;8.502;2023-02-01T15:23:46;6.30;99.90
2010;DHT22;1008;47.404;8.502;2023-02-01T15:26:25;6.20;99.90
2010;DHT22;1008;47.404;8.502;2023-02-01T15:28:51;6.20;99.90
2010;DHT22;1008;47.404;8.502;2023-02-01T15:31:32;6.10;99.90
2010;DHT22;1008;47.404;8.502;2023-02-01T15:34:00;6.20;99.90
2010;DHT22;1008;47.404;8.502;2023-02-01T15:36:27;6.00;99.90
2010;DHT22;1008;47.404;8.502;2023-02-01T15:39:19;6.00;99.90
2010;DHT22;1008;47.404;8.502;2023-02-01T15:41:50;6.00;99.90
2010;DHT22;1008;47.404;8.502;2023-02-01T15:44:21;6.00;99.90
2010;DHT22;1008;47.404;8.502;2023-02-01T15:46:55;6.00;99.90
2010;DHT22;1008;47.404;8.502;2023-02-01T15:49:27;6.00;99.90
2010;DHT22;1008;47.404;8.502;2023-02-01T15:51:55;6.10;99.90
2010;DHT22;1008;47.404;8.502;2023-02-01T15:54:26;6.00;99.90
2010;DHT22;1008;47.404;8.502;2023-02-01T15:56:54;6.00;99.90
2010;DHT22;1008;47.404;8.502;2023-02-01T15:59:24;5.90;99.90
2010;DHT22;1008;47.404;8.502;2023-02-01T16:01:51;6.00;99.90
2010;DHT22;1008;47.404;8.502;2023-02-01T16:04:20;5.90;99.90
2010;DHT22;1008;47.404;8.502;2023-02-01T16:06:50;6.00;99.90
2010;DHT22;1008;47.404;8.502;2023-02-01T16:09:19;6.10;99.90
2010;DHT22;1008;47.404;8.502;2023-02-01T16:11:51;5.90;99.90
2010;DHT22;1008;47.404;8.502;2023-02-01T16:14:19;6.00;99.90
2010;DHT22;1008;47.404;8.502;2023-02-01T16:16:46;6.00;99.90
2010;DHT22;1008;47.404;8.502;2023-02-01T16:19:13;6.10;99.90
2010;DHT22;1008;47.404;8.502;2023-02-01T16:21:39;6.10;99.90
2010;DHT22;1008;47.404;8.502;2023-02-01T16:24:08;6.00;99.90
2010;DHT22;1008;47.404;8.502;2023-02-01T16:26:34;5.90;99.90
2010;DHT22;1008;47.404;8.502;2023-02-01T16:29:02;5.90;99.90
2010;DHT22;1008;47.404;8.502;2023-02-01T16:31:35;5.90;99.90
2010;DHT22;1008;47.404;8.502;2023-02-01T16:34:02;6.00;99.90
2010;DHT22;1008;47.404;8.502;2023-02-01T16:36:30;6.00;99.90
2010;DHT22;1008;47.404;8.502;2023-02-01T16:38:57;6.10;99.90
2010;DHT22;1008;47.404;8.502;2023-02-01T16:41:26;6.00;99.90
2010;DHT22;1008;47.404;8.502;2023-02-01T16:43:54;5.90;99.90
2010;DHT22;1008;47.404;8.502;2023-02-01T16:46:23;5.90;99.90
2010;DHT22;1008;47.404;8.502;2023-02-01T16:48:54;5.90;99.90
2010;DHT22;1008;47.404;8.502;2023-02-01T16:51:22;6.00;99.90
2010;DHT22;1008;47.404;8.502;2023-02-01T16:53:49;6.10;99.90
2010;DHT22;1008;47.404;8.502;2023-02-01T16:56:18;6.00;99.90
2010;DHT22;1008;47.404;8.502;2023-02-01T16:58:47;5.90;99.90
2010;DHT22;1008;47.404;8.502;2023-02-01T17:01:16;6.00;99.90
2010;DHT22;1008;47.404;8.502;2023-02-01T17:03:44;5.90;99.90